Time;durP1;ratioP1;P1;durP2;ratioP2;P2;SDS_P1;SDS_P2;PMS_P1;PMS_P2;Temp;Humidity;BMP_temperature;BMP_pressure;BME280_temperature;BME280_humidity;BME280_pressure;Samples;Min_cycle;Max_cycle;Signal;HPM_P1;HPM_P2
2022/08/15 00:01:30;;;;;;;14.95;9.35;;;26.50;58.30;;;;;;4934951;29;20028;-69
2022/08/15 00:03:58;;;;;;;18.30;9.90;;;26.50;58.90;;;;;;4934962;29;20027;-69
2022/08/15 00:06:30;;;;;;;15.57;9.80;;;26.50;58.70;;;;;;4932737;29;20032;-69
2022/08/15 00:08:57;;;;;;;12.95;8.73;;;26.50;59.00;;;;;;4934905;29;20039;-69
2022/08/15 00:11:37;;;;;;;13.25;8.75;;;26.40;58.50;;;;;;4934766;29;20031;-69
2022/08/15 00:14:23;;;;;;;15.27;8.98;;;26.40;58.50;;;;;;4934947;29;20024;-69
2022/08/15 00:16:49;;;;;;;12.98;8.82;;;26.50;58.40;;;;;;4916973;29;20027;-69
2022/08/15 00:19:19;;;;;;;14.15;9.20;;;26.50;58.80;;;;;;4932771;29;20030;-69
2022/08/15 00:21:51;;;;;;;13.23;9.07;;;26.40;58.60;;;;;;4934700;29;20496;-69
2022/08/15 00:24:21;;;;;;;15.38;9.73;;;26.50;58.80;;;;;;4934695;29;20027;-69
2022/08/15 00:26:48;;;;;;;14.45;9.48;;;26.40;58.70;;;;;;4942414;23;20394;-73
2022/08/15 00:29:16;;;;;;;14.10;8.93;;;26.40;58.90;;;;;;4963107;28;20022;-73
2022/08/15 00:31:42;;;;;;;13.57;8.45;;;26.40;58.80;;;;;;4939928;28;20081;-73
2022/08/15 00:34:09;;;;;;;13.63;8.52;;;26.40;58.90;;;;;;4955633;28;20554;-73
2022/08/15 00:36:36;;;;;;;14.90;9.10;;;26.40;59.60;;;;;;4972073;28;20085;-73
2022/08/15 00:39:03;;;;;;;12.32;8.25;;;26.40;58.70;;;;;;4955853;28;20075;-73
2022/08/15 00:41:40;;;;;;;12.47;8.27;;;26.40;58.80;;;;;;4955876;28;20035;-73
2022/08/15 00:44:17;;;;;;;13.60;8.93;;;26.40;58.60;;;;;;4955827;28;20828;-73
2022/08/15 00:46:48;;;;;;;14.20;9.30;;;26.40;58.90;;;;;;4954757;28;20543;-73
2022/08/15 00:49:14;;;;;;;13.35;8.35;;;26.40;58.80;;;;;;4924352;28;20063;-73
2022/08/15 00:52:06;;;;;;;11.25;8.38;;;26.40;58.40;;;;;;4972891;28;20035;-73
2022/08/15 00:54:42;;;;;;;13.75;9.20;;;26.40;58.60;;;;;;4968145;28;20039;-73
2022/08/15 00:57:18;;;;;;;13.43;8.68;;;26.40;58.80;;;;;;4972009;28;20022;-73
2022/08/15 00:59:51;;;;;;;14.90;9.02;;;26.40;58.70;;;;;;4955474;28;20415;-73
2022/08/15 01:02:21;;;;;;;12.35;8.50;;;26.40;58.70;;;;;;4939684;28;20101;-73
2022/08/15 01:04:47;;;;;;;15.98;9.05;;;26.40;59.10;;;;;;4955486;28;20446;-73
2022/08/15 01:07:14;;;;;;;16.33;9.40;;;26.40;58.70;;;;;;4938771;28;20479;-73
2022/08/15 01:09:41;;;;;;;13.85;9.15;;;26.40;58.60;;;;;;4972846;28;20105;-73
2022/08/15 01:12:13;;;;;;;14.18;8.93;;;26.40;59.00;;;;;;4955419;28;20053;-73
2022/08/15 01:14:45;;;;;;;14.68;9.40;;;26.40;59.30;;;;;;4972732;28;20409;-73
2022/08/15 01:17:13;;;;;;;12.63;8.60;;;26.40;58.80;;;;;;4938858;28;20034;-73
2022/08/15 01:20:04;;;;;;;14.77;8.43;;;26.40;59.00;;;;;;4939492;28;20023;-73
2022/08/15 01:22:47;;;;;;;13.43;9.07;;;26.40;58.60;;;;;;4939525;28;20163;-73
2022/08/15 01:25:23;;;;;;;11.98;8.63;;;26.40;59.00;;;;;;4938806;28;20462;-73
2022/08/15 01:28:24;;;;;;;14.20;8.25;;;26.40;58.60;;;;;;4955395;28;20117;-73
2022/08/15 01:31:01;;;;;;;11.32;8.48;;;26.40;58.70;;;;;;4908431;28;20053;-73
2022/08/15 01:33:31;;;;;;;14.05;8.90;;;26.40;58.60;;;;;;4942893;28;20027;-74
2022/08/15 01:35:59;;;;;;;12.30;8.27;;;26.40;58.90;;;;;;4942082;28;20035;-73
2022/08/15 01:38:35;;;;;;;15.18;8.70;;;26.30;58.60;;;;;;4975898;28;20399;-74
2022/08/15 01:41:24;;;;;;;11.68;8.38;;;26.40;58.70;;;;;;4958678;28;20031;-74
2022/08/15 01:44:16;;;;;;;12.40;9.27;;;26.40;58.60;;;;;;4958684;28;20478;-74
2022/08/15 01:47:00;;;;;;;13.07;8.48;;;26.30;58.60;;;;;;4941853;28;20300;-74
2022/08/15 01:49:41;;;;;;;13.70;8.90;;;26.40;58.70;;;;;;4958402;28;20019;-74
2022/08/15 01:52:08;;;;;;;12.27;8.85;;;26.40;58.80;;;;;;4958394;28;20031;-74
2022/08/15 01:54:40;;;;;;;12.82;8.70;;;26.40;58.70;;;;;;4942658;28;20030;-74
2022/08/15 01:57:08;;;;;;;13.65;8.70;;;26.30;58.70;;;;;;4957547;28;20027;-74
2022/08/15 01:59:34;;;;;;;12.25;9.15;;;26.30;58.80;;;;;;4958302;28;20026;-74
2022/08/15 02:02:05;;;;;;;13.95;9.23;;;26.40;59.20;;;;;;4975388;28;20376;-74
2022/08/15 02:04:35;;;;;;;13.57;9.15;;;26.30;58.70;;;;;;4958320;28;20511;-74
2022/08/15 02:07:08;;;;;;;13.98;9.30;;;26.40;58.80;;;;;;4941448;28;20219;-73
2022/08/15 02:09:35;;;;;;;13.43;9.15;;;26.40;58.70;;;;;;4958154;28;20046;-73
2022/08/15 02:12:08;;;;;;;;;;;26.40;58.90;;;;;;4958522;28;20058;-73
2022/08/15 02:14:41;;;;;;;10.82;8.20;;;26.40;58.60;;;;;;4958122;28;19910;-73
2022/08/15 02:17:13;;;;;;;13.27;9.20;;;26.30;58.50;;;;;;4957180;28;20030;-74
2022/08/15 02:19:42;;;;;;;14.43;8.57;;;26.30;58.80;;;;;;4957897;28;20038;-74
2022/08/15 02:22:08;;;;;;;13.70;8.93;;;26.30;58.60;;;;;;4941979;28;20038;-74
2022/08/15 02:24:35;;;;;;;12.27;8.70;;;26.40;58.80;;;;;;4957895;28;20037;-74
2022/08/15 02:27:03;;;;;;;14.93;9.38;;;26.40;58.50;;;;;;4956824;28;20085;-74
2022/08/15 02:29:29;;;;;;;12.98;8.73;;;26.40;58.60;;;;;;4975111;28;20105;-74
2022/08/15 02:32:00;;;;;;;12.52;8.63;;;26.30;58.60;;;;;;4957719;28;20054;-74
2022/08/15 02:34:27;;;;;;;15.00;8.95;;;26.40;58.60;;;;;;4957895;28;20395;-74
2022/08/15 02:36:55;;;;;;;11.40;8.45;;;26.30;59.20;;;;;;4956874;28;20483;-74
2022/08/15 02:39:23;;;;;;;14.35;9.52;;;26.30;59.30;;;;;;4941992;28;20026;-74
2022/08/15 02:41:51;;;;;;;13.07;9.00;;;26.30;58.70;;;;;;4956907;28;20109;-74
2022/08/15 02:44:20;;;;;;;15.45;9.55;;;26.30;59.80;;;;;;4941485;28;20031;-74
2022/08/15 02:46:49;;;;;;;;;;;26.30;59.10;;;;;;4941258;28;20070;-74
2022/08/15 02:49:18;;;;;;;13.18;9.18;;;26.30;58.90;;;;;;4974851;28;20383;-74
2022/08/15 02:51:46;;;;;;;12.35;8.73;;;26.30;59.20;;;;;;4957330;28;20034;-74
2022/08/15 02:54:16;;;;;;;11.80;9.30;;;26.30;59.10;;;;;;4941549;28;20027;-74
2022/08/15 02:56:42;;;;;;;11.88;9.38;;;26.30;59.10;;;;;;4956421;28;20027;-73
2022/08/15 02:59:08;;;;;;;15.25;9.57;;;26.30;59.00;;;;;;4957271;28;20031;-73
2022/08/15 03:01:40;;;;;;;13.05;9.35;;;26.30;59.60;;;;;;4957159;28;20057;-74
2022/08/15 03:04:08;;;;;;;13.57;9.40;;;26.30;59.30;;;;;;4957222;28;20040;-74
2022/08/15 03:06:36;;;;;;;;;;;26.30;59.30;;;;;;4956840;28;20097;-73
2022/08/15 03:09:07;;;;;;;13.70;10.10;;;26.30;59.60;;;;;;4957383;28;20318;-73
2022/08/15 03:11:39;;;;;;;13.95;9.30;;;26.30;60.30;;;;;;4957025;28;20042;-74
2022/08/15 03:14:13;;;;;;;16.43;9.07;;;26.30;59.30;;;;;;4957094;28;20112;-73
2022/08/15 03:16:43;;;;;;;13.70;9.60;;;26.30;59.50;;;;;;4956058;28;20073;-74
2022/08/15 03:19:16;;;;;;;12.93;9.35;;;26.20;61.00;;;;;;4940759;28;20554;-74
2022/08/15 03:21:49;;;;;;;12.57;8.77;;;26.20;60.70;;;;;;4956868;28;20034;-73
2022/08/15 03:24:18;;;;;;;11.95;8.68;;;26.20;59.70;;;;;;4956942;28;20388;-74
2022/08/15 03:26:46;;;;;;;13.20;9.45;;;26.20;59.90;;;;;;4955929;28;20148;-73
2022/08/15 03:29:15;;;;;;;12.23;9.35;;;26.20;60.70;;;;;;4956652;28;20121;-73
2022/08/15 03:31:45;;;;;;;14.32;9.80;;;26.20;60.10;;;;;;4940672;28;20081;-73
2022/08/15 03:34:14;;;;;;;15.50;9.93;;;26.20;59.90;;;;;;4956680;28;20097;-74
2022/08/15 03:36:44;;;;;;;12.85;9.50;;;26.20;60.30;;;;;;4955626;28;20055;-73
2022/08/15 03:39:14;;;;;;;15.35;10.27;;;26.20;60.90;;;;;;4956583;28;20035;-73
2022/08/15 03:41:42;;;;;;;12.23;9.35;;;26.20;59.80;;;;;;4956651;28;20403;-73
2022/08/15 03:44:09;;;;;;;12.73;9.23;;;26.20;59.70;;;;;;4956424;28;20041;-74
2022/08/15 03:46:35;;;;;;;13.50;9.88;;;26.30;59.80;;;;;;4955435;28;20558;-73
2022/08/15 03:49:03;;;;;;;14.48;9.57;;;26.20;60.20;;;;;;4956434;28;20026;-73
2022/08/15 03:51:33;;;;;;;14.32;10.23;;;26.30;59.90;;;;;;4956290;28;20035;-74
2022/08/15 03:54:06;;;;;;;17.77;9.90;;;26.30;60.00;;;;;;4955430;28;20035;-73
2022/08/15 03:56:35;;;;;;;12.77;9.60;;;26.30;60.20;;;;;;4972616;28;20030;-74
2022/08/15 03:59:04;;;;;;;12.55;9.75;;;26.20;60.10;;;;;;4956366;28;20077;-74
2022/08/15 04:01:34;;;;;;;14.95;10.68;;;26.20;60.40;;;;;;4940274;28;20432;-74
2022/08/15 04:04:02;;;;;;;14.70;10.27;;;26.20;60.50;;;;;;4956191;28;20077;-74
2022/08/15 04:06:39;;;;;;;13.55;9.90;;;26.20;60.40;;;;;;4955231;28;20089;-73
2022/08/15 04:09:06;;;;;;;13.85;9.98;;;26.20;60.20;;;;;;4955938;28;20034;-73
2022/08/15 04:11:32;;;;;;;14.07;9.98;;;26.20;60.50;;;;;;4956017;28;20466;-74
2022/08/15 04:13:59;;;;;;;15.52;10.63;;;26.20;60.50;;;;;;4973212;28;20530;-74
2022/08/15 04:16:26;;;;;;;14.07;10.32;;;26.20;61.10;;;;;;4955239;28;20057;-74
2022/08/15 04:18:52;;;;;;;14.80;10.15;;;26.20;60.80;;;;;;4939987;28;20475;-74
2022/08/15 04:21:19;;;;;;;13.60;10.70;;;26.20;60.20;;;;;;4940100;28;20394;-74
2022/08/15 04:23:46;;;;;;;17.23;11.93;;;26.20;61.50;;;;;;4955855;28;20042;-74
2022/08/15 04:26:13;;;;;;;15.13;10.90;;;26.20;61.50;;;;;;4955073;28;20031;-74
2022/08/15 04:28:39;;;;;;;14.10;10.52;;;26.20;60.90;;;;;;4955813;28;20324;-74
2022/08/15 04:31:10;;;;;;;14.00;10.35;;;26.20;60.90;;;;;;4939662;28;20487;-73
2022/08/15 04:33:36;;;;;;;14.63;10.93;;;26.20;60.40;;;;;;4955970;28;20038;-73
2022/08/15 04:36:09;;;;;;;15.05;10.52;;;26.20;60.80;;;;;;4954898;28;20027;-73
2022/08/15 04:38:42;;;;;;;15.20;10.88;;;26.20;60.90;;;;;;4955793;28;20121;-73
2022/08/15 04:41:11;;;;;;;15.63;10.88;;;26.20;61.00;;;;;;4955714;28;20031;-74
2022/08/15 04:43:40;;;;;;;17.42;11.55;;;26.20;61.60;;;;;;4972963;28;20074;-74
2022/08/15 04:46:08;;;;;;;14.93;11.13;;;26.10;61.20;;;;;;4939266;28;20031;-74
2022/08/15 04:48:35;;;;;;;17.25;11.13;;;26.20;61.80;;;;;;4939847;28;20039;-73
2022/08/15 04:51:03;;;;;;;13.75;10.40;;;26.20;61.20;;;;;;4955620;28;20117;-73
2022/08/15 04:53:33;;;;;;;16.20;11.32;;;26.20;61.10;;;;;;4955721;28;20018;-73
2022/08/15 04:56:06;;;;;;;21.73;11.88;;;26.20;61.10;;;;;;4939355;28;20058;-74
2022/08/15 04:58:35;;;;;;;16.20;11.30;;;26.20;61.10;;;;;;4939749;28;20160;-74
2022/08/15 05:01:08;;;;;;;15.55;10.93;;;26.10;61.20;;;;;;4953950;28;20031;-73
2022/08/15 05:03:43;;;;;;;16.15;11.57;;;26.20;61.10;;;;;;4942141;28;20030;-73
2022/08/15 05:06:10;;;;;;;13.98;10.88;;;26.20;62.10;;;;;;4967922;28;20026;-73
2022/08/15 05:08:38;;;;;;;14.07;10.38;;;26.20;61.60;;;;;;4978258;28;20475;-73
2022/08/15 05:11:14;;;;;;;16.02;11.18;;;26.10;61.70;;;;;;4978160;28;20069;-74
2022/08/15 05:13:42;;;;;;;16.23;11.48;;;26.10;61.70;;;;;;4978075;28;20030;-72
2022/08/15 05:16:12;;;;;;;18.27;11.70;;;26.20;61.80;;;;;;4977806;28;20031;-72
2022/08/15 05:18:42;;;;;;;16.48;12.13;;;26.10;61.60;;;;;;4977948;28;20110;-73
2022/08/15 05:21:10;;;;;;;15.90;10.97;;;26.20;61.50;;;;;;4962457;28;20070;-73
2022/08/15 05:23:38;;;;;;;17.58;11.75;;;26.20;61.70;;;;;;4978348;28;20026;-74
2022/08/15 05:26:07;;;;;;;17.27;11.52;;;26.10;61.80;;;;;;4977407;28;20030;-73
2022/08/15 05:28:37;;;;;;;16.05;11.55;;;26.20;61.70;;;;;;4962478;28;20474;-73
2022/08/15 05:31:09;;;;;;;14.98;11.15;;;26.20;62.10;;;;;;4978058;28;20535;-73
2022/08/15 05:33:39;;;;;;;16.02;12.02;;;26.20;61.50;;;;;;4961911;28;20027;-73
2022/08/15 05:36:08;;;;;;;13.70;10.95;;;26.20;62.30;;;;;;4977225;28;20475;-73
2022/08/15 05:38:49;;;;;;;16.48;11.52;;;26.20;61.40;;;;;;4994117;28;20042;-73
2022/08/15 05:41:56;;;;;;;17.35;10.90;;;26.20;61.50;;;;;;4978058;28;20026;-73
2022/08/15 05:44:36;;;;;;;16.63;11.23;;;26.20;62.30;;;;;;4900269;29;20036;-73
2022/08/15 05:47:27;;;;;;;16.48;10.93;;;26.20;62.00;;;;;;4970868;28;20047;-74
2022/08/15 05:50:00;;;;;;;16.10;10.50;;;26.20;61.50;;;;;;4978073;28;20077;-73
2022/08/15 05:52:51;;;;;;;15.73;10.63;;;26.20;62.50;;;;;;4977888;28;20442;-73
2022/08/15 05:55:51;;;;;;;16.15;11.88;;;26.20;61.40;;;;;;4976976;28;20039;-73
2022/08/15 05:58:47;;;;;;;15.10;11.05;;;26.20;61.40;;;;;;4977559;28;20138;-73
2022/08/15 06:01:44;;;;;;;15.88;11.35;;;26.20;61.20;;;;;;4977660;28;20034;-73
2022/08/15 06:04:33;;;;;;;16.67;11.02;;;26.20;62.10;;;;;;4977495;28;20030;-73
2022/08/15 06:07:09;;;;;;;18.08;11.45;;;26.20;62.10;;;;;;4976862;28;20427;-73
2022/08/15 06:09:56;;;;;;;16.10;11.27;;;26.20;62.40;;;;;;4977527;28;20041;-72
2022/08/15 06:12:38;;;;;;;16.67;10.70;;;26.20;61.60;;;;;;4977362;28;20104;-73
2022/08/15 06:15:20;;;;;;;14.45;11.23;;;26.20;61.90;;;;;;4960606;28;20089;-74
2022/08/15 06:17:58;;;;;;;14.57;10.63;;;26.20;62.00;;;;;;4976305;28;20394;-74
2022/08/15 06:20:39;;;;;;;15.77;11.50;;;26.20;61.90;;;;;;4977282;28;20372;-74
2022/08/15 06:23:19;;;;;;;17.83;12.07;;;26.20;62.30;;;;;;4961339;28;20121;-74
2022/08/15 06:26:02;;;;;;;19.65;10.68;;;26.20;62.10;;;;;;4976470;28;20488;-74
2022/08/15 06:28:41;;;;;;;16.75;11.00;;;26.20;61.40;;;;;;4935440;23;20508;-72
2022/08/15 06:31:31;;;;;;;15.55;10.50;;;26.20;61.50;;;;;;4956748;28;20026;-72
2022/08/15 06:34:35;;;;;;;16.63;10.52;;;26.20;62.00;;;;;;4938124;29;20110;-71
2022/08/15 06:37:18;;;;;;;17.33;11.48;;;26.20;61.50;;;;;;4937659;29;20090;-71
2022/08/15 06:39:53;;;;;;;16.65;11.55;;;26.20;62.50;;;;;;4938212;29;20059;-72
2022/08/15 06:42:34;;;;;;;17.92;11.23;;;26.20;62.50;;;;;;4954490;29;20043;-72
2022/08/15 06:45:15;;;;;;;17.95;11.75;;;26.20;62.50;;;;;;4938305;29;20039;-72
2022/08/15 06:47:42;;;;;;;15.55;11.43;;;26.20;62.30;;;;;;4955605;29;20388;-72
2022/08/15 06:50:21;;;;;;;16.58;11.55;;;26.20;62.80;;;;;;4938257;29;20058;-72
2022/08/15 06:53:18;;;;;;;17.98;11.45;;;26.20;61.90;;;;;;4938161;29;20082;-72
2022/08/15 06:55:44;;;;;;;18.10;11.63;;;26.30;62.30;;;;;;4927255;29;20039;-72
2022/08/15 06:58:19;;;;;;;19.58;11.18;;;26.30;62.50;;;;;;4953907;29;20031;-72
2022/08/15 07:00:53;;;;;;;17.08;11.63;;;26.30;62.30;;;;;;4953926;29;20027;-72
2022/08/15 07:04:05;;;;;;;15.63;10.85;;;26.30;62.70;;;;;;4954071;29;20038;-72
2022/08/15 07:06:41;;;;;;;16.55;11.23;;;26.30;62.90;;;;;;4891617;29;20039;-72
2022/08/15 07:09:23;;;;;;;14.23;10.70;;;26.30;63.00;;;;;;4953833;29;20491;-72
2022/08/15 07:11:59;;;;;;;15.95;11.15;;;26.40;63.70;;;;;;4953740;29;20078;-71
2022/08/15 07:14:39;;;;;;;15.05;11.35;;;26.40;63.10;;;;;;4953701;29;20035;-72
2022/08/15 07:17:25;;;;;;;16.35;9.98;;;26.40;63.70;;;;;;4937005;29;20024;-72
2022/08/15 07:19:54;;;;;;;20.73;10.77;;;26.40;63.30;;;;;;4953790;29;20031;-72
2022/08/15 07:22:29;;;;;;;19.30;10.77;;;26.40;63.20;;;;;;4937821;29;20039;-72
2022/08/15 07:24:56;;;;;;;16.05;10.32;;;26.40;63.30;;;;;;4953405;29;20027;-72
2022/08/15 07:27:28;;;;;;;14.93;10.30;;;26.40;63.50;;;;;;4936451;28;20543;-72
2022/08/15 07:30:14;;;;;;;15.20;10.35;;;26.50;63.00;;;;;;4953041;29;20511;-72
2022/08/15 07:32:41;;;;;;;17.25;9.55;;;26.40;63.10;;;;;;4953379;29;20035;-73
2022/08/15 07:35:11;;;;;;;12.90;9.43;;;26.40;63.00;;;;;;4936922;29;20490;-72
2022/08/15 07:37:50;;;;;;;12.73;8.93;;;26.40;63.10;;;;;;4937358;29;20037;-71
2022/08/15 07:40:26;;;;;;;14.02;9.75;;;26.40;63.30;;;;;;4953323;29;20031;-71
2022/08/15 07:42:54;;;;;;;15.32;9.52;;;26.50;62.90;;;;;;4937307;29;20105;-71
2022/08/15 07:45:26;;;;;;;13.48;9.48;;;26.40;63.00;;;;;;4936265;29;20035;-72
2022/08/15 07:48:21;;;;;;;12.88;9.10;;;26.40;63.10;;;;;;4937102;29;20039;-73
2022/08/15 07:51:22;;;;;;;13.65;9.52;;;26.50;63.10;;;;;;4953073;29;20043;-73
2022/08/15 07:54:04;;;;;;;12.73;9.02;;;26.50;63.10;;;;;;4911642;29;20057;-73
2022/08/15 07:56:51;;;;;;;17.15;10.02;;;26.50;63.20;;;;;;4952234;29;20247;-72
2022/08/15 07:59:22;;;;;;;13.87;9.20;;;26.50;63.00;;;;;;4953121;29;20042;-72
2022/08/15 08:02:00;;;;;;;15.80;9.73;;;26.50;63.20;;;;;;4953052;29;20030;-73
2022/08/15 08:04:29;;;;;;;13.90;9.38;;;26.50;63.00;;;;;;4952833;29;20395;-72
2022/08/15 08:07:10;;;;;;;16.40;9.52;;;26.60;63.30;;;;;;4936118;29;20464;-72
2022/08/15 08:10:09;;;;;;;14.48;9.48;;;26.60;63.00;;;;;;4952822;29;20028;-72
2022/08/15 08:12:59;;;;;;;12.95;8.80;;;26.70;63.00;;;;;;4906444;29;20076;-72
2022/08/15 08:15:48;;;;;;;13.75;8.70;;;26.70;62.60;;;;;;4936011;29;20035;-72
2022/08/15 08:18:44;;;;;;;12.75;9.20;;;26.70;62.90;;;;;;4937016;29;20031;-72
2022/08/15 08:21:21;;;;;;;12.45;9.35;;;26.70;62.70;;;;;;4920676;29;20494;-72
2022/08/15 08:23:59;;;;;;;12.23;8.70;;;26.70;62.50;;;;;;4936835;29;20041;-72
2022/08/15 08:26:40;;;;;;;15.48;9.20;;;26.70;62.40;;;;;;4936121;29;20395;-72
2022/08/15 08:29:18;;;;;;;12.55;8.68;;;26.70;62.40;;;;;;4952636;29;20035;-73
2022/08/15 08:32:05;;;;;;;12.63;8.85;;;26.70;62.30;;;;;;4952403;29;20034;-73
2022/08/15 08:34:56;;;;;;;13.52;8.70;;;26.70;62.40;;;;;;4936528;29;20027;-73
2022/08/15 08:37:34;;;;;;;12.23;8.73;;;26.60;62.60;;;;;;4952857;29;20027;-73
2022/08/15 08:43:31;;;;;;;14.20;8.55;;;26.70;62.30;;;;;;4959995;29;20031;-72
2022/08/15 08:46:23;;;;;;;14.43;9.07;;;26.70;62.60;;;;;;4959287;29;20404;-72
2022/08/15 08:49:28;;;;;;;13.27;9.02;;;26.70;62.50;;;;;;4960137;29;20126;-73
2022/08/15 08:52:10;;;;;;;16.30;9.82;;;26.70;62.40;;;;;;4942839;29;20114;-73
2022/08/15 08:55:02;;;;;;;12.90;9.40;;;26.50;62.50;;;;;;4959821;29;20046;-72
2022/08/15 08:57:44;;;;;;;16.33;9.18;;;26.50;62.40;;;;;;4959419;28;20130;-72
2022/08/15 09:00:20;;;;;;;12.70;8.70;;;26.40;62.40;;;;;;4959896;29;20093;-73
2022/08/15 09:03:09;;;;;;;13.63;8.90;;;26.40;62.40;;;;;;4959862;29;20562;-73
2022/08/15 09:05:49;;;;;;;15.45;9.35;;;26.50;62.60;;;;;;4957780;29;20083;-72
2022/08/15 09:08:51;;;;;;;12.63;9.00;;;26.50;62.30;;;;;;4959755;29;20559;-73
2022/08/15 09:11:33;;;;;;;12.10;9.15;;;26.50;62.30;;;;;;4958327;29;20031;-73
2022/08/15 09:14:11;;;;;;;13.27;9.45;;;26.50;62.30;;;;;;4959797;28;20163;-72
2022/08/15 09:16:39;;;;;;;12.23;8.82;;;26.50;62.20;;;;;;4941848;29;20106;-72
2022/08/15 09:19:04;;;;;;;16.63;10.57;;;26.50;62.50;;;;;;4958628;28;20031;-72
2022/08/15 09:21:32;;;;;;;15.63;8.77;;;26.60;62.30;;;;;;4959721;28;20026;-72
2022/08/15 09:23:59;;;;;;;16.13;9.80;;;26.70;62.20;;;;;;4959680;29;20117;-72
2022/08/15 09:26:31;;;;;;;14.93;9.77;;;26.70;61.80;;;;;;4959024;28;20110;-72
2022/08/15 09:29:10;;;;;;;13.77;10.20;;;26.60;61.80;;;;;;4959593;28;20125;-72
2022/08/15 09:31:39;;;;;;;16.33;8.90;;;26.50;61.80;;;;;;4959609;29;20027;-73
2022/08/15 09:34:33;;;;;;;14.77;9.07;;;26.60;62.00;;;;;;4959660;29;20027;-73
2022/08/15 09:37:22;;;;;;;16.83;9.50;;;26.60;62.60;;;;;;4941631;29;20035;-73
2022/08/15 09:40:19;;;;;;;12.52;9.15;;;26.70;61.80;;;;;;4959633;29;20465;-73
2022/08/15 09:43:00;;;;;;;12.50;9.27;;;26.70;61.60;;;;;;4958347;28;20129;-73
2022/08/15 09:45:51;;;;;;;13.25;8.95;;;26.70;62.00;;;;;;4958733;28;20094;-73
2022/08/15 09:48:42;;;;;;;13.68;9.70;;;26.70;61.10;;;;;;4959464;28;20043;-73
2022/08/15 09:51:28;;;;;;;17.20;9.55;;;26.60;61.40;;;;;;4958273;28;20106;-73
2022/08/15 09:54:23;;;;;;;12.43;8.63;;;26.70;61.00;;;;;;4956655;29;20023;-72
2022/08/15 09:57:27;;;;;;;13.52;9.32;;;26.70;61.00;;;;;;4955535;29;20519;-73
2022/08/15 10:00:16;;;;;;;13.13;9.13;;;26.80;61.50;;;;;;4951845;29;20039;-73
2022/08/15 10:02:46;;;;;;;12.93;8.95;;;26.80;60.90;;;;;;4955863;29;20114;-73
2022/08/15 10:05:21;;;;;;;15.60;9.88;;;26.90;60.80;;;;;;4955471;29;20054;-72
2022/08/15 10:07:50;;;;;;;15.98;10.50;;;26.90;60.80;;;;;;4956355;29;20456;-72
2022/08/15 10:10:44;;;;;;;14.60;10.02;;;27.00;61.00;;;;;;4956158;29;20027;-72
2022/08/15 10:13:26;;;;;;;15.85;10.40;;;27.00;60.90;;;;;;4955321;29;20510;-72
2022/08/15 10:15:53;;;;;;;12.98;9.77;;;27.00;61.00;;;;;;4954136;29;20034;-73
2022/08/15 10:18:22;;;;;;;14.23;9.98;;;27.00;61.10;;;;;;4955619;29;20062;-73
2022/08/15 10:21:17;;;;;;;14.25;10.07;;;27.00;61.10;;;;;;4955847;29;20472;-72
2022/08/15 10:23:46;;;;;;;13.05;9.75;;;26.90;61.20;;;;;;4955834;29;20031;-73
2022/08/15 10:26:27;;;;;;;12.93;9.65;;;27.00;61.10;;;;;;4954900;29;20027;-73
2022/08/15 10:29:01;;;;;;;13.77;8.85;;;27.00;60.80;;;;;;4938701;29;20031;-73
2022/08/15 10:31:36;;;;;;;14.98;10.13;;;27.10;61.20;;;;;;4955717;29;20031;-73
2022/08/15 10:34:03;;;;;;;17.13;10.05;;;27.10;60.50;;;;;;4956177;29;20114;-72
2022/08/15 10:36:35;;;;;;;13.88;9.65;;;27.00;60.30;;;;;;4953583;29;20034;-72
2022/08/15 10:39:38;;;;;;;13.15;10.25;;;27.00;60.40;;;;;;4954462;29;20480;-72
2022/08/15 10:42:11;;;;;;;12.98;9.48;;;27.00;60.60;;;;;;4955582;29;20492;-73
2022/08/15 10:45:00;;;;;;;14.20;9.77;;;27.00;60.30;;;;;;4938621;29;20035;-72
2022/08/15 10:47:58;;;;;;;13.35;9.35;;;27.00;60.20;;;;;;4953658;29;20046;-73
2022/08/15 10:50:36;;;;;;;17.17;10.07;;;26.90;60.20;;;;;;4872307;29;20563;-72
2022/08/15 10:53:29;;;;;;;17.25;9.63;;;27.00;60.20;;;;;;4955276;29;20035;-72
2022/08/15 10:56:18;;;;;;;13.75;9.60;;;27.00;60.10;;;;;;4954555;29;20023;-72
2022/08/15 10:58:45;;;;;;;12.98;9.38;;;27.00;60.50;;;;;;4954017;29;20039;-72
2022/08/15 11:01:17;;;;;;;14.10;9.90;;;27.00;60.40;;;;;;4955175;29;20027;-72
2022/08/15 11:03:52;;;;;;;14.35;9.35;;;27.00;59.40;;;;;;4954602;28;20038;-73
2022/08/15 11:06:21;;;;;;;12.70;9.75;;;27.10;59.30;;;;;;4954288;29;20020;-72
2022/08/15 11:08:49;;;;;;;;;;;27.10;59.30;;;;;;4955622;29;20543;-72
2022/08/15 11:11:19;;;;;;;13.32;9.38;;;27.10;59.30;;;;;;4953767;29;19968;-72
2022/08/15 11:13:54;;;;;;;12.85;9.50;;;27.00;59.20;;;;;;4937983;29;20130;-72
2022/08/15 11:16:31;;;;;;;13.48;9.93;;;27.00;59.10;;;;;;4954112;29;20078;-72
2022/08/15 11:18:59;;;;;;;13.98;9.38;;;27.10;59.00;;;;;;4953778;29;20031;-72
2022/08/15 11:21:49;;;;;;;14.55;10.43;;;27.00;59.00;;;;;;4954773;29;20349;-72
2022/08/15 11:24:28;;;;;;;15.02;9.90;;;27.00;59.00;;;;;;4937601;29;20488;-72
2022/08/15 11:27:19;;;;;;;14.13;10.07;;;27.00;59.00;;;;;;4936790;29;20041;-72
2022/08/15 11:29:46;;;;;;;15.25;10.10;;;27.00;59.30;;;;;;4937683;29;20031;-72
2022/08/15 11:32:27;;;;;;;15.38;9.13;;;27.00;59.30;;;;;;4953481;29;20035;-72
2022/08/15 11:34:53;;;;;;;13.20;9.52;;;26.90;59.30;;;;;;4954585;29;20027;-72
2022/08/15 11:37:24;;;;;;;13.68;9.27;;;26.90;59.50;;;;;;4920498;29;20047;-72
2022/08/15 11:40:08;;;;;;;13.13;9.20;;;26.90;59.40;;;;;;4954544;29;20059;-72
2022/08/15 11:42:38;;;;;;;14.65;9.70;;;26.90;59.30;;;;;;4953289;29;20030;-72
2022/08/15 11:45:14;;;;;;;13.60;9.82;;;26.90;59.30;;;;;;4954119;29;20050;-72
2022/08/15 11:47:47;;;;;;;14.80;10.13;;;27.00;59.30;;;;;;4954211;29;20046;-72
2022/08/15 11:50:37;;;;;;;13.60;9.43;;;27.00;59.70;;;;;;4937751;29;20030;-73
2022/08/15 11:53:04;;;;;;;;;;;27.00;58.90;;;;;;4938258;29;20068;-72
2022/08/15 11:55:30;;;;;;;12.65;9.77;;;27.00;59.10;;;;;;4954807;29;19914;-71
2022/08/15 11:58:05;;;;;;;13.82;9.75;;;27.00;59.00;;;;;;4955068;29;20042;-69
2022/08/15 12:00:37;;;;;;;13.45;10.35;;;27.00;58.90;;;;;;4938387;29;20055;-72
2022/08/15 12:03:23;;;;;;;14.10;9.63;;;27.00;58.80;;;;;;4954532;29;20058;-72
2022/08/15 12:05:52;;;;;;;14.00;9.52;;;27.00;58.90;;;;;;4953516;29;20039;-71
2022/08/15 12:08:29;;;;;;;14.10;10.00;;;27.00;58.90;;;;;;4954261;29;20024;-72
2022/08/15 12:11:23;;;;;;;14.00;9.95;;;27.00;58.90;;;;;;4937413;29;20042;-72
2022/08/15 12:13:59;;;;;;;12.30;9.13;;;27.00;58.80;;;;;;4950491;29;20050;-72
2022/08/15 12:16:34;;;;;;;13.18;9.75;;;27.00;58.30;;;;;;4952360;29;20031;-72
2022/08/15 12:19:22;;;;;;;13.63;9.00;;;27.00;58.60;;;;;;4953047;29;20471;-72
2022/08/15 12:21:50;;;;;;;14.30;9.88;;;27.00;57.80;;;;;;4952861;29;20400;-72
2022/08/15 12:24:25;;;;;;;15.40;10.00;;;27.00;58.20;;;;;;4953940;29;20035;-71
2022/08/15 12:27:01;;;;;;;17.00;9.60;;;27.00;58.30;;;;;;4937037;29;20031;-77
2022/08/15 12:29:31;;;;;;;13.65;10.10;;;27.10;58.00;;;;;;4930604;29;20051;-74
2022/08/15 12:32:00;;;;;;;15.52;9.77;;;27.10;57.70;;;;;;4909680;29;20036;-75
2022/08/15 12:34:38;;;;;;;13.18;10.07;;;27.10;57.60;;;;;;4917795;29;20028;-75
2022/08/15 12:37:07;;;;;;;14.98;10.45;;;27.10;57.60;;;;;;4933878;29;20032;-75
2022/08/15 12:39:42;;;;;;;15.13;10.35;;;27.20;57.60;;;;;;4917949;29;20031;-73
2022/08/15 12:42:24;;;;;;;18.35;10.57;;;27.10;57.60;;;;;;4934603;29;20035;-74
2022/08/15 12:44:53;;;;;;;13.55;9.82;;;27.10;57.70;;;;;;4917642;29;20086;-75
2022/08/15 12:47:20;;;;;;;13.90;9.50;;;27.10;57.60;;;;;;4916742;29;20130;-75
2022/08/15 12:49:46;;;;;;;13.00;9.25;;;27.10;57.70;;;;;;4917423;29;20063;-74
2022/08/15 12:52:12;;;;;;;14.90;10.25;;;27.10;57.70;;;;;;4901738;29;20066;-74
2022/08/15 12:54:38;;;;;;;12.95;9.88;;;27.00;57.60;;;;;;4934590;29;20024;-74
2022/08/15 12:57:04;;;;;;;15.43;9.30;;;27.10;57.70;;;;;;4900917;29;20032;-74
2022/08/15 12:59:31;;;;;;;14.77;9.50;;;27.10;57.50;;;;;;4901951;29;20481;-75
2022/08/15 13:02:00;;;;;;;16.00;10.30;;;27.10;57.50;;;;;;4933061;29;20449;-75
2022/08/15 13:04:26;;;;;;;13.93;10.27;;;27.10;57.20;;;;;;4934310;29;20036;-74
2022/08/15 13:06:55;;;;;;;14.43;10.82;;;27.10;57.30;;;;;;4932465;29;20058;-74
2022/08/15 13:09:23;;;;;;;14.25;10.35;;;27.10;57.30;;;;;;4917405;29;20071;-74
2022/08/15 13:11:48;;;;;;;15.02;10.40;;;27.10;57.30;;;;;;4917174;29;20032;-74
2022/08/15 13:14:17;;;;;;;13.98;10.38;;;27.10;57.20;;;;;;4934439;29;20035;-74
2022/08/15 13:16:47;;;;;;;13.55;10.07;;;27.10;57.20;;;;;;4933657;29;20458;-73
2022/08/15 13:19:19;;;;;;;12.57;9.52;;;27.00;57.20;;;;;;4934276;29;20408;-74
2022/08/15 13:24:31;;;;;;;14.15;9.48;;;27.00;57.10;;;;;;4934338;29;20540;-73